This is the latest recevied weather packets stored in our database for station/object 4S6DRJ-13. If no packets are shown the sender has not sent any weather packets the latest 10 day(s).
| Time | Temp. | Humidity | Pressure | Rain* | Wind** | Luminosity | Snow |
|---|---|---|---|---|---|---|---|
| 1788385694 | 27.78° C | 84% | 1008.4 hPa | 0 mm | 0.89 m/s, 233° | 0 W/m² | - |
| 1788385633 | 27.78° C | 84% | 1008.6 hPa | 0 mm | 0.89 m/s, 220° | 0 W/m² | - |
| 1788385572 | 27.78° C | 84% | 1008.7 hPa | 0 mm | 0.89 m/s, 284° | 0 W/m² | - |
| 1788385511 | 27.78° C | 84% | 1008.5 hPa | 0 mm | 1.79 m/s, 166° | 0 W/m² | - |
| 1788385450 | 27.78° C | 84% | 1008.5 hPa | 0 mm | 1.34 m/s, 211° | 0 W/m² | - |
| 1788385389 | 27.78° C | 84% | 1008.5 hPa | 0 mm | 1.34 m/s, 221° | 0 W/m² | - |
| 1788385328 | 27.78° C | 84% | 1008.6 hPa | 0 mm | 1.34 m/s, 233° | 0 W/m² | - |
| 1788385267 | 27.78° C | 84% | 1008.7 hPa | 0 mm | 1.79 m/s, 241° | 0 W/m² | - |
| 1788385206 | 27.78° C | 84% | 1008.6 hPa | 0 mm | 0.89 m/s, 188° | 0 W/m² | - |
| 1788385146 | 27.78° C | 84% | 1008.6 hPa | 0 mm | 1.34 m/s, 219° | 0 W/m² | - |
| 1788385084 | 27.78° C | 85% | 1008.6 hPa | 0 mm | 2.24 m/s, 94° | 0 W/m² | - |
| 1788385023 | 27.78° C | 85% | 1008.6 hPa | 0 mm | 0.89 m/s, 223° | 0 W/m² | - |
| 1788384962 | 27.78° C | 85% | 1008.7 hPa | 0 mm | 1.79 m/s, 260° | 0 W/m² | - |
| 1788384901 | 27.78° C | 85% | 1008.8 hPa | 0 mm | 0.89 m/s, 236° | 0 W/m² | - |
| 1788384840 | 27.78° C | 86% | 1008.8 hPa | 0 mm | 0.45 m/s, 226° | 0 W/m² | - |
| 1788384778 | 27.78° C | 86% | 1008.8 hPa | 0 mm | 1.34 m/s, 207° | 0 W/m² | - |
| 1788384718 | 27.78° C | 86% | 1008.7 hPa | 0 mm | 0 m/s | 0 W/m² | - |
| 1788384656 | 27.78° C | 86% | 1008.8 hPa | 0 mm | 0.89 m/s, 254° | 0 W/m² | - |
| 1788384595 | 27.78° C | 86% | 1008.8 hPa | 0 mm | 0.45 m/s, 182° | 0 W/m² | - |
| 1788384534 | 27.78° C | 86% | 1008.7 hPa | 0 mm | 0.45 m/s, 287° | 0 W/m² | - |
| 1788384474 | 27.78° C | 87% | 1008.7 hPa | 0 mm | 0 m/s | 0 W/m² | - |
| 1788384413 | 27.78° C | 86% | 1008.8 hPa | 0 mm | 0 m/s | 0 W/m² | - |
| 1788384352 | 27.78° C | 86% | 1008.9 hPa | 0 mm | 0 m/s | 0 W/m² | - |
| 1788384290 | 27.78° C | 86% | 1008.8 hPa | 0 mm | 1.34 m/s, 102° | 0 W/m² | - |
| 1788384230 | 27.78° C | 86% | 1008.7 hPa | 0 mm | 0.45 m/s, 211° | 0 W/m² | - |
* Rain latest hour (hover to see other rain measurements)
** Current wind speed in m/s (hover to see current wind gust speed)